Time;durP1;ratioP1;P1;durP2;ratioP2;P2;SDS_P1;SDS_P2;PMS_P1;PMS_P2;Temp;Humidity;BMP_temperature;BMP_pressure;BME280_temperature;BME280_humidity;BME280_pressure;Samples;Min_cycle;Max_cycle;Signal;HPM_P1;HPM_P2
2023/02/12 00:04:04;;;;;;;79.90;40.20;;;;;;;2.52;100.00;100244.81;269964;1267;22539;-90
2023/02/12 00:10:06;;;;;;;70.30;36.20;;;;;;;2.54;100.00;100240.72;269592;1267;22667;-89
2023/02/12 00:16:16;;;;;;;80.80;38.90;;;;;;;2.55;100.00;100238.83;269820;1266;22606;-90
2023/02/12 00:22:18;;;;;;;81.60;40.40;;;;;;;2.55;100.00;100244.55;269741;1268;24850;-90
2023/02/12 00:28:20;;;;;;;73.50;36.40;;;;;;;2.54;100.00;100249.64;269355;1267;22735;-91
2023/02/12 00:34:22;;;;;;;74.80;37.60;;;;;;;2.56;100.00;100249.52;272704;1267;22217;-90
2023/02/12 00:40:24;;;;;;;82.60;40.70;;;;;;;2.61;100.00;100250.79;273892;1267;23588;-90
2023/02/12 00:46:26;;;;;;;73.40;36.80;;;;;;;2.67;100.00;100249.30;273783;1269;22313;-90
2023/02/12 00:52:30;;;;;;;82.70;41.10;;;;;;;2.73;100.00;100252.56;273803;1269;23547;-90
2023/02/12 00:58:42;;;;;;;71.60;36.10;;;;;;;2.75;100.00;100252.70;273550;1268;22544;-90
2023/02/12 01:04:44;;;;;;;73.40;36.90;;;;;;;2.77;100.00;100258.13;272611;1267;22521;-90
2023/02/12 01:10:54;;;;;;;69.90;36.90;;;;;;;2.78;100.00;100261.02;270132;1267;22565;-89
2023/02/12 01:16:59;;;;;;;53.30;27.50;;;;;;;2.78;100.00;100264.98;270782;1268;22524;-90
2023/02/12 01:23:01;;;;;;;72.30;36.00;;;;;;;2.80;100.00;100268.95;270306;1267;23288;-90
2023/02/12 01:29:05;;;;;;;68.10;36.10;;;;;;;2.81;100.00;100281.95;270060;1269;22549;-90
2023/02/12 01:35:08;;;;;;;65.60;34.40;;;;;;;2.83;100.00;100287.09;269187;1267;22659;-90
2023/02/12 01:41:14;;;;;;;72.70;38.10;;;;;;;2.80;100.00;100282.52;269808;1268;25287;-90
2023/02/12 01:47:17;;;;;;;68.10;36.00;;;;;;;2.79;100.00;100293.77;272056;1267;22329;-90
2023/02/12 01:53:24;;;;;;;53.50;29.20;;;;;;;2.78;100.00;100298.77;274142;1269;22198;-89
2023/02/12 01:59:26;;;;;;;62.60;31.10;;;;;;;2.82;100.00;100307.64;273629;1269;22222;-89
2023/02/12 02:05:54;;;;;;;68.20;34.30;;;;;;;2.86;100.00;100307.48;271494;1269;22389;-89
2023/02/12 02:18:25;;;;;;;61.40;31.70;;;;;;;2.84;100.00;100318.59;269747;1268;22618;-90
2023/02/12 02:24:46;;;;;;;69.60;36.50;;;;;;;2.82;100.00;100327.38;269488;1267;22560;-90
2023/02/12 02:31:07;;;;;;;55.90;30.00;;;;;;;2.81;100.00;100343.58;273744;1263;22209;-89
2023/02/12 02:37:12;;;;;;;62.90;34.40;;;;;;;2.81;100.00;100361.52;271927;1267;22531;-90
2023/02/12 02:43:18;;;;;;;65.60;34.10;;;;;;;2.81;100.00;100371.70;273501;1267;22397;-91
2023/02/12 02:49:44;;;;;;;63.70;33.20;;;;;;;2.81;100.00;100378.55;273625;1267;22396;-90
2023/02/12 02:55:50;;;;;;;68.70;33.80;;;;;;;2.83;100.00;100376.92;273661;1269;23307;-90
2023/02/12 03:01:58;;;;;;;66.20;35.10;;;;;;;2.83;100.00;100379.03;272167;1267;22547;-89
2023/02/12 03:08:23;;;;;;;66.60;34.30;;;;;;;2.83;100.00;100385.84;269787;1268;22610;-89
2023/02/12 03:14:30;;;;;;;89.20;44.40;;;;;;;2.82;100.00;100407.88;269184;1267;23253;-90
2023/02/12 03:20:36;;;;;;;85.10;46.40;;;;;;;2.79;100.00;100410.06;269621;1260;23476;-89
2023/02/12 03:26:43;;;;;;;70.20;37.00;;;;;;;2.71;100.00;100421.14;268880;1267;22869;-89
2023/02/12 03:33:33;;;;;;;67.40;38.90;;;;;;;2.70;100.00;100441.39;269186;1267;22754;-89
2023/02/12 03:39:56;;;;;;;73.70;37.20;;;;;;;2.69;100.00;100441.06;269541;1267;22544;-89
2023/02/12 03:46:14;;;;;;;68.80;37.10;;;;;;;2.69;100.00;100457.52;269793;1267;22575;-89
2023/02/12 03:52:16;;;;;;;65.40;33.90;;;;;;;2.67;100.00;100464.61;269500;1267;24228;-89
2023/02/12 03:58:20;;;;;;;72.30;37.40;;;;;;;2.66;100.00;100476.59;269654;1266;25470;-88
2023/02/12 04:04:23;;;;;;;66.20;35.10;;;;;;;2.63;100.00;100484.83;269087;1267;22583;-90
2023/02/12 04:10:30;;;;;;;68.10;35.30;;;;;;;2.56;100.00;100490.59;269884;1267;24268;-90
2023/02/12 04:16:43;;;;;;;66.60;35.60;;;;;;;2.46;100.00;100505.67;271174;1269;22451;-88
2023/02/12 04:22:54;;;;;;;63.00;35.30;;;;;;;2.48;100.00;100512.69;271677;1269;22641;-88
2023/02/12 04:29:02;;;;;;;64.50;35.60;;;;;;;2.46;100.00;100525.23;269835;1269;22922;-89
2023/02/12 04:35:22;;;;;;;68.60;37.00;;;;;;;2.47;100.00;100516.42;272069;1269;22320;-89
2023/02/12 04:41:24;;;;;;;66.90;36.40;;;;;;;2.39;100.00;100527.84;271005;1269;26515;-89
2023/02/12 04:47:26;;;;;;;70.60;36.80;;;;;;;2.36;100.00;100543.33;269216;1268;22538;-89
2023/02/12 04:53:28;;;;;;;61.40;31.70;;;;;;;2.34;100.00;100557.39;269627;1268;22320;-90
2023/02/12 04:59:30;;;;;;;63.40;34.40;;;;;;;2.36;100.00;100564.25;269103;1266;22766;-89
2023/02/12 05:05:32;;;;;;;84.70;42.00;;;;;;;2.34;100.00;100574.32;269308;1269;22563;-88
2023/02/12 05:11:34;;;;;;;77.20;38.50;;;;;;;2.31;100.00;100592.77;270906;1269;22980;-89
2023/02/12 05:17:36;;;;;;;73.10;39.40;;;;;;;2.27;100.00;100605.44;273380;1267;22571;-89
2023/02/12 05:23:39;;;;;;;86.60;43.90;;;;;;;2.19;100.00;100618.73;269807;1267;22221;-88
2023/02/12 05:29:41;;;;;;;80.30;41.30;;;;;;;2.23;100.00;100624.23;269887;1270;22523;-88
2023/02/12 05:35:42;;;;;;;76.50;41.70;;;;;;;2.24;100.00;100629.25;269630;1269;23189;-88
2023/02/12 05:41:44;;;;;;;82.70;41.90;;;;;;;2.20;100.00;100644.52;269825;1267;22618;-89
2023/02/12 05:47:47;;;;;;;78.50;42.00;;;;;;;2.19;100.00;100651.44;269991;1267;23932;-88
2023/02/12 05:53:50;;;;;;;75.40;38.60;;;;;;;2.11;100.00;100662.77;270156;1267;22551;-88
2023/02/12 05:59:54;;;;;;;70.50;37.10;;;;;;;2.06;100.00;100674.69;271540;1267;22562;-88
2023/02/12 06:05:56;;;;;;;74.50;38.30;;;;;;;2.01;100.00;100685.67;269839;1267;22550;-89
2023/02/12 06:11:58;;;;;;;75.50;40.10;;;;;;;1.98;100.00;100695.36;269904;1267;22375;-89
2023/02/12 06:17:59;;;;;;;85.50;42.40;;;;;;;1.98;100.00;100703.36;271367;1267;22600;-89
2023/02/12 06:24:01;;;;;;;36.60;18.50;;;;;;;1.98;100.00;100714.60;270838;1269;22544;-87
2023/02/12 06:30:03;;;;;;;20.60;10.90;;;;;;;1.89;100.00;100722.95;269653;1267;22450;-88
2023/02/12 06:36:05;;;;;;;32.50;12.30;;;;;;;1.85;100.00;100726.27;270192;1269;22614;-88
2023/02/12 06:42:07;;;;;;;31.00;11.50;;;;;;;1.83;100.00;100741.89;271088;1267;22446;-88
2023/02/12 06:48:09;;;;;;;51.80;16.70;;;;;;;1.79;100.00;100749.61;273651;1267;22344;-88
2023/02/12 06:54:13;;;;;;;27.10;11.70;;;;;;;1.72;100.00;100754.00;272165;1269;22194;-89
2023/02/12 07:00:15;;;;;;;47.50;15.50;;;;;;;1.63;100.00;100756.84;272418;1267;22531;-88
2023/02/12 07:06:17;;;;;;;26.60;11.80;;;;;;;1.52;100.00;100763.34;270822;1267;23211;-88
2023/02/12 07:12:19;;;;;;;20.60;9.30;;;;;;;1.40;100.00;100774.64;270683;1267;23544;-89
2023/02/12 07:18:21;;;;;;;20.90;9.30;;;;;;;1.28;100.00;100784.47;270205;1269;22573;-90
2023/02/12 07:24:25;;;;;;;24.20;11.10;;;;;;;1.22;100.00;100793.70;272017;1267;22394;-87
2023/02/12 07:30:27;;;;;;;20.20;11.10;;;;;;;1.46;100.00;100796.42;273256;1268;22376;-89
2023/02/12 07:36:30;;;;;;;25.80;10.80;;;;;;;1.99;100.00;100804.42;273466;1267;22329;-90
2023/02/12 07:42:34;;;;;;;16.80;9.50;;;;;;;2.47;100.00;100807.59;273595;1267;22350;-90
2023/02/12 07:48:40;;;;;;;25.00;10.80;;;;;;;2.69;100.00;100815.73;273574;1268;22339;-89
2023/02/12 07:54:42;;;;;;;19.70;8.80;;;;;;;2.83;100.00;100825.06;272886;1267;22545;-89
2023/02/12 08:00:44;;;;;;;14.80;7.60;;;;;;;2.62;100.00;100827.03;272878;1267;24258;-89
2023/02/12 08:06:49;;;;;;;24.90;9.40;;;;;;;2.45;100.00;100836.34;271226;1267;23733;-88
2023/02/12 08:12:51;;;;;;;21.40;11.80;;;;;;;2.65;100.00;100844.00;270864;1267;22535;-89
2023/02/12 08:18:54;;;;;;;17.40;8.00;;;;;;;3.00;100.00;100838.54;271557;1269;22371;-89
2023/02/12 08:24:59;;;;;;;16.40;8.80;;;;;;;2.87;100.00;100852.48;271536;1267;22403;-89
2023/02/12 08:31:03;;;;;;;12.40;6.70;;;;;;;2.60;100.00;100860.95;273524;1267;23276;-89
2023/02/12 08:37:08;;;;;;;;;;;;;;;2.36;100.00;100868.60;273648;1266;22438;-89
2023/02/12 08:43:10;;;;;;;8.30;5.20;;;;;;;2.23;100.00;100873.63;272153;1267;22368;-89
2023/02/12 08:49:14;;;;;;;9.90;5.00;;;;;;;2.21;100.00;100867.31;272084;1266;22601;-88
2023/02/12 08:55:16;;;;;;;6.90;5.00;;;;;;;2.20;100.00;100878.88;273807;1257;22410;-88
2023/02/12 09:01:29;;;;;;;8.80;4.00;;;;;;;2.20;100.00;100885.79;271492;1267;22527;-88
2023/02/12 09:07:32;;;;;;;10.40;5.90;;;;;;;2.24;100.00;100896.10;270095;1269;23403;-89
2023/02/12 09:13:38;;;;;;;9.00;4.90;;;;;;;2.25;100.00;100912.59;270816;1267;22726;-89
2023/02/12 09:19:45;;;;;;;9.20;5.70;;;;;;;2.26;100.00;100925.82;269917;1267;23430;-88
2023/02/12 09:25:47;;;;;;;8.80;4.80;;;;;;;2.35;100.00;100928.56;271874;1267;237630;-89
2023/02/12 09:31:49;;;;;;;8.00;4.80;;;;;;;2.41;100.00;100934.98;272142;1270;23142;-88
2023/02/12 09:37:54;;;;;;;9.10;5.10;;;;;;;2.53;100.00;100939.16;273634;1270;22512;-88
2023/02/12 09:44:24;;;;;;;9.90;5.60;;;;;;;2.63;100.00;100939.82;272246;1267;23943;-89
2023/02/12 09:50:53;;;;;;;18.50;8.70;;;;;;;2.67;100.00;100942.03;272547;1268;22490;-89
2023/02/12 09:56:58;;;;;;;16.90;7.40;;;;;;;2.69;100.00;100945.05;272084;1269;22557;-89
2023/02/12 10:03:05;;;;;;;6.70;4.60;;;;;;;2.82;100.00;100945.16;271431;1267;23208;-90
2023/02/12 10:09:28;;;;;;;8.40;5.10;;;;;;;2.95;100.00;100950.67;271114;1267;23886;-89
2023/02/12 10:15:54;;;;;;;7.70;4.50;;;;;;;2.99;100.00;100963.33;271851;1267;24420;-88
2023/02/12 10:22:21;;;;;;;10.10;5.50;;;;;;;2.99;100.00;100964.30;270537;1267;22587;-88
2023/02/12 10:28:25;;;;;;;;;;;;;;;3.07;100.00;100966.86;270325;1267;23704;-89
2023/02/12 10:34:35;;;;;;;10.60;5.30;;;;;;;3.15;100.00;100972.27;271297;1261;22741;-88
2023/02/12 10:40:43;;;;;;;10.20;5.10;;;;;;;3.24;100.00;100974.56;271631;1268;23019;-89
2023/02/12 10:46:46;;;;;;;9.00;4.70;;;;;;;3.45;100.00;100972.05;271165;1260;22707;-89
2023/02/12 10:52:56;;;;;;;7.80;4.90;;;;;;;3.77;100.00;100968.52;270850;1267;23464;-89
2023/02/12 10:58:59;;;;;;;8.60;4.70;;;;;;;3.90;100.00;100969.51;270296;1270;22343;-91
2023/02/12 11:05:23;;;;;;;7.70;5.00;;;;;;;4.20;100.00;100968.10;270467;1268;22573;-90
2023/02/12 11:11:30;;;;;;;8.70;5.60;;;;;;;4.64;100.00;100959.41;269951;1267;24251;-90
2023/02/12 11:17:39;;;;;;;10.90;4.90;;;;;;;4.94;100.00;100962.37;270419;1267;22410;-91
2023/02/12 11:23:42;;;;;;;7.40;5.20;;;;;;;5.02;99.29;100959.18;270772;1267;25590;-90
2023/02/12 11:30:09;;;;;;;10.30;5.30;;;;;;;4.71;99.24;100968.88;271805;1270;22831;-90
2023/02/12 11:36:14;;;;;;;8.80;5.40;;;;;;;4.43;99.63;100970.38;271142;1268;22322;-91
2023/02/12 11:42:18;;;;;;;10.30;5.80;;;;;;;4.50;99.60;100965.64;273105;1267;22328;-90
2023/02/12 11:48:34;;;;;;;9.60;5.60;;;;;;;4.61;99.31;100961.30;272728;1268;23111;-91
2023/02/12 11:54:41;;;;;;;11.30;6.20;;;;;;;4.67;98.70;100969.90;271739;1269;25317;-90
2023/02/12 12:00:59;;;;;;;13.90;7.60;;;;;;;4.80;97.72;100964.33;271283;1269;22498;-89
2023/02/12 12:07:11;;;;;;;14.50;8.10;;;;;;;4.82;96.69;100963.33;270580;1270;22608;-91
2023/02/12 12:13:24;;;;;;;11.70;6.80;;;;;;;4.98;97.82;100951.84;269916;1270;26500;-90
2023/02/12 12:19:53;;;;;;;13.00;8.20;;;;;;;5.11;97.17;100945.44;273060;1267;22221;-91
2023/02/12 12:25:59;;;;;;;13.70;7.50;;;;;;;5.26;96.30;100942.84;271403;1267;23324;-91
2023/02/12 12:32:02;;;;;;;14.00;7.80;;;;;;;5.35;95.69;100939.48;272558;1267;22510;-91
2023/02/12 12:38:22;;;;;;;16.30;8.30;;;;;;;5.42;95.53;100937.66;272032;1267;22210;-91
2023/02/12 12:44:30;;;;;;;13.40;7.20;;;;;;;5.26;94.75;100935.02;273465;1267;23016;-91
2023/02/12 12:50:55;;;;;;;13.80;8.30;;;;;;;5.15;94.63;100933.33;273607;1267;22335;-91
2023/02/12 12:57:23;;;;;;;12.20;8.20;;;;;;;5.13;94.20;100929.44;273591;1269;22166;-91
2023/02/12 13:03:34;;;;;;;16.50;8.30;;;;;;;5.25;93.75;100935.04;272495;1253;25441;-90
2023/02/12 13:09:50;;;;;;;17.60;9.00;;;;;;;5.07;92.98;100932.99;273575;1268;23535;-91
2023/02/12 13:16:11;;;;;;;15.70;8.50;;;;;;;5.14;93.63;100937.41;273421;1264;22351;-90
2023/02/12 13:22:35;;;;;;;17.20;8.90;;;;;;;5.21;93.03;100941.66;273689;1269;22403;-91
2023/02/12 13:28:40;;;;;;;15.70;9.90;;;;;;;5.22;92.68;100953.04;273689;1269;23395;-91
2023/02/12 13:34:43;;;;;;;20.30;9.40;;;;;;;5.19;92.06;100951.19;273808;1267;22318;-91
2023/02/12 13:40:48;;;;;;;17.80;9.20;;;;;;;5.27;92.36;100952.39;273737;1269;22350;-92
2023/02/12 13:47:00;;;;;;;18.40;8.40;;;;;;;5.39;92.00;100958.19;273532;1269;22337;-92
2023/02/12 13:53:23;;;;;;;13.70;8.30;;;;;;;5.48;91.21;100959.73;273324;1267;22388;-92
2023/02/12 13:59:34;;;;;;;17.80;8.00;;;;;;;5.42;90.46;100953.86;272533;1267;23626;-91
2023/02/12 14:05:37;;;;;;;17.20;8.50;;;;;;;5.12;89.08;100953.36;270291;1268;22275;-91
2023/02/12 14:11:50;;;;;;;12.50;7.50;;;;;;;4.94;88.98;100957.48;271648;1269;22367;-89
2023/02/12 14:18:02;;;;;;;16.20;7.50;;;;;;;4.82;88.97;100959.69;273110;1257;23603;-91
2023/02/12 14:24:35;;;;;;;14.50;8.00;;;;;;;4.74;88.62;100966.95;271493;1268;23834;-91
2023/02/12 14:30:39;;;;;;;14.60;7.40;;;;;;;4.62;88.22;100966.80;273404;1269;22322;-90
2023/02/12 14:36:45;;;;;;;16.40;7.40;;;;;;;4.50;88.19;100965.00;271933;1269;23123;-90
2023/02/12 14:42:54;;;;;;;16.40;7.80;;;;;;;4.35;88.21;100960.86;273293;1269;22339;-91
2023/02/12 14:49:03;;;;;;;14.90;7.70;;;;;;;4.19;88.03;100961.45;272958;1269;22480;-91
2023/02/12 14:55:21;;;;;;;20.40;8.70;;;;;;;4.03;87.96;100968.98;271442;1268;22553;-90
2023/02/12 15:01:31;;;;;;;20.10;9.10;;;;;;;3.85;88.46;100976.92;271609;1269;22549;-90
2023/02/12 15:07:43;;;;;;;19.60;9.70;;;;;;;3.74;89.00;100976.23;271014;1269;22565;-90
2023/02/12 15:14:10;;;;;;;18.50;10.00;;;;;;;3.64;89.48;100981.84;271182;1267;22245;-90
2023/02/12 15:20:20;;;;;;;19.70;9.80;;;;;;;3.50;90.03;100987.08;270893;1269;22185;-89
2023/02/12 15:26:26;;;;;;;21.10;10.10;;;;;;;3.36;90.45;100993.40;271359;1267;22629;-90
2023/02/12 15:32:28;;;;;;;22.80;10.10;;;;;;;3.22;90.78;100990.39;270519;1267;22573;-90
2023/02/12 15:38:36;;;;;;;24.50;11.50;;;;;;;3.11;90.85;100993.90;270363;1269;25488;-90
2023/02/12 15:44:38;;;;;;;20.90;10.50;;;;;;;2.99;90.91;100999.79;271383;1268;22326;-89
2023/02/12 15:50:50;;;;;;;18.90;10.80;;;;;;;2.79;91.01;101007.27;273096;1269;22277;-89
2023/02/12 15:56:54;;;;;;;23.50;10.80;;;;;;;2.59;91.13;101018.47;270684;1267;22426;-90
2023/02/12 16:02:56;;;;;;;22.10;10.30;;;;;;;2.43;91.28;101027.53;273303;1268;22361;-90
2023/02/12 16:09:13;;;;;;;18.90;10.80;;;;;;;2.26;91.18;101034.02;271907;1267;22422;-89
2023/02/12 16:15:30;;;;;;;25.50;12.10;;;;;;;2.02;91.16;101029.42;272281;1268;22258;-90
2023/02/12 16:21:33;;;;;;;;;;;;;;;1.81;91.59;101036.59;270502;1267;22624;-90
2023/02/12 16:27:35;;;;;;;23.60;11.80;;;;;;;1.62;91.63;101040.17;273525;1267;22219;-90
2023/02/12 16:33:37;;;;;;;21.70;11.90;;;;;;;1.41;91.96;101047.84;273618;1268;22218;-89
2023/02/12 16:40:07;;;;;;;23.40;12.50;;;;;;;1.28;92.40;101060.59;273594;1267;22391;-89
2023/02/12 16:46:11;;;;;;;26.90;13.90;;;;;;;1.19;92.65;101074.54;273530;1269;22279;-90
2023/02/12 16:52:20;;;;;;;30.20;12.40;;;;;;;1.12;92.70;101082.48;265170;1269;10001518;-89
2023/02/12 16:58:22;;;;;;;27.00;13.80;;;;;;;0.97;92.42;101084.40;272722;1267;23445;-90
2023/02/12 17:04:24;;;;;;;28.50;14.20;;;;;;;0.84;92.74;101082.55;273575;1267;22323;-89
2023/02/12 17:10:27;;;;;;;59.90;23.70;;;;;;;0.79;92.69;101069.67;273489;1269;22295;-90
2023/02/12 17:16:29;;;;;;;48.40;21.20;;;;;;;0.75;92.96;101070.52;273434;1269;22298;-90
2023/02/12 17:22:31;;;;;;;42.90;20.10;;;;;;;0.73;92.77;101074.27;273548;1269;22339;-90
2023/02/12 17:28:33;;;;;;;40.30;21.10;;;;;;;0.70;92.84;101077.49;273403;1257;22339;-90
2023/02/12 17:34:36;;;;;;;44.70;21.60;;;;;;;0.63;93.24;101080.35;273537;1268;22182;-90
2023/02/12 17:40:38;;;;;;;38.50;18.50;;;;;;;0.54;93.36;101079.81;273434;1269;22365;-89
2023/02/12 17:46:40;;;;;;;42.80;22.00;;;;;;;0.47;93.14;101075.44;273631;1269;22327;-90
2023/02/12 17:52:43;;;;;;;44.70;23.20;;;;;;;0.42;93.67;101069.98;272428;1259;23352;-89
2023/02/12 17:58:45;;;;;;;48.90;23.10;;;;;;;0.33;93.60;101063.00;270704;1269;22539;-89
2023/02/12 18:04:48;;;;;;;56.20;26.50;;;;;;;0.14;93.65;101064.19;272810;1268;22400;-89
2023/02/12 18:10:50;;;;;;;53.50;28.70;;;;;;;-0.01;93.88;101064.48;273465;1269;22315;-89
2023/02/12 18:16:51;;;;;;;52.90;26.60;;;;;;;-0.13;94.02;101059.76;272995;1268;22301;-89
2023/02/12 18:22:53;;;;;;;46.90;26.30;;;;;;;-0.23;94.21;101060.68;273698;1267;23038;-90
2023/02/12 18:28:59;;;;;;;61.40;28.50;;;;;;;-0.38;94.10;101065.26;273555;1267;22206;-89
2023/02/12 18:35:02;;;;;;;57.70;28.30;;;;;;;-0.56;94.27;101062.59;273508;1267;22457;-89
2023/02/12 18:41:06;;;;;;;58.80;28.50;;;;;;;-0.65;94.80;101062.48;272944;1269;25411;-89
2023/02/12 18:47:08;;;;;;;60.00;30.10;;;;;;;-0.66;95.36;101059.56;272408;1267;22557;-89
2023/02/12 18:53:10;;;;;;;56.40;28.00;;;;;;;-0.67;95.87;101051.59;272865;1267;22550;-89
2023/02/12 18:59:14;;;;;;;54.10;28.00;;;;;;;-0.67;96.00;101053.21;272240;1267;22215;-89
2023/02/12 19:05:18;;;;;;;46.50;24.20;;;;;;;-0.74;96.00;101058.67;273262;1267;22343;-90
2023/02/12 19:11:21;;;;;;;52.20;27.10;;;;;;;-0.75;96.02;101051.66;272724;1267;25319;-90
2023/02/12 19:17:23;;;;;;;59.80;29.70;;;;;;;-0.70;97.05;101050.05;273089;1269;22214;-89
2023/02/12 19:23:25;;;;;;;55.60;27.80;;;;;;;-0.63;97.56;101049.11;273636;1268;22225;-89
2023/02/12 19:29:27;;;;;;;54.40;25.90;;;;;;;-0.61;97.40;101047.21;273736;1268;22656;-89
2023/02/12 19:35:29;;;;;;;57.50;27.10;;;;;;;-0.58;96.95;101037.98;273686;1269;22420;-90
2023/02/12 19:41:31;;;;;;;60.60;27.90;;;;;;;-0.58;97.01;101034.91;271205;1268;22346;-90
2023/02/12 19:47:33;;;;;;;84.30;38.00;;;;;;;-0.71;97.15;101030.89;273488;1267;22350;-89
2023/02/12 19:53:35;;;;;;;98.20;42.60;;;;;;;-0.78;97.87;101033.83;273627;1269;22246;-90
2023/02/12 19:59:37;;;;;;;79.50;35.80;;;;;;;-0.73;98.48;101033.66;273612;1269;23113;-89
2023/02/12 20:05:51;;;;;;;97.50;39.20;;;;;;;-0.70;98.73;101040.21;273787;1269;23444;-89
2023/02/12 20:11:54;;;;;;;89.20;38.60;;;;;;;-0.69;98.87;101040.33;273638;1269;22855;-89
2023/02/12 20:17:56;;;;;;;78.20;35.90;;;;;;;-0.63;99.42;101040.19;273567;1267;22485;-89
2023/02/12 20:24:00;;;;;;;87.20;38.20;;;;;;;-0.56;99.83;101045.21;273744;1268;23234;-89
2023/02/12 20:30:02;;;;;;;72.20;34.90;;;;;;;-0.49;99.96;101046.63;273647;1269;22229;-89
2023/02/12 20:36:09;;;;;;;115.30;55.40;;;;;;;-0.44;99.98;101046.58;273628;1269;22192;-89
2023/02/12 20:42:12;;;;;;;97.40;50.20;;;;;;;-0.51;99.93;101045.26;272710;1269;22898;-88
2023/02/12 20:48:14;;;;;;;83.80;40.40;;;;;;;-0.55;99.98;101047.80;273438;1267;22838;-89
2023/02/12 20:54:16;;;;;;;105.60;50.60;;;;;;;-0.62;99.87;101046.66;273057;1259;22350;-89
2023/02/12 21:00:18;;;;;;;104.70;49.90;;;;;;;-0.68;99.98;101035.23;273187;1269;23587;-89
2023/02/12 21:06:21;;;;;;;101.40;47.50;;;;;;;-0.79;99.86;101032.75;273713;1269;22427;-89
2023/02/12 21:12:23;;;;;;;93.50;47.80;;;;;;;-0.87;100.00;101039.37;273590;1267;22169;-89
2023/02/12 21:18:28;;;;;;;107.10;49.70;;;;;;;-0.92;100.00;101040.20;272345;1267;23537;-88
2023/02/12 21:24:30;;;;;;;97.90;49.20;;;;;;;-0.90;100.00;101038.41;269882;1267;540266;-87
2023/02/12 21:30:32;;;;;;;102.90;50.40;;;;;;;-0.83;100.00;101041.35;270957;1267;22323;-89
2023/02/12 21:36:37;;;;;;;104.50;52.00;;;;;;;-0.78;100.00;101043.45;271321;1267;25385;-89
2023/02/12 21:42:40;;;;;;;109.10;51.00;;;;;;;-0.71;100.00;101050.25;270844;1267;22546;-89
2023/02/12 21:48:43;;;;;;;117.40;56.20;;;;;;;-0.64;100.00;101051.30;272641;1269;22569;-89
2023/02/12 21:54:48;;;;;;;107.90;56.50;;;;;;;-0.60;100.00;101057.11;271008;1267;23056;-89
2023/02/12 22:00:50;;;;;;;113.20;54.30;;;;;;;-0.53;100.00;101055.20;273630;1269;22191;-89
2023/02/12 22:06:52;;;;;;;114.00;53.90;;;;;;;-0.46;100.00;101061.35;273804;1267;22414;-89
2023/02/12 22:12:54;;;;;;;111.40;55.40;;;;;;;-0.43;100.00;101074.05;273609;1267;22244;-90
2023/02/12 22:18:58;;;;;;;121.90;58.60;;;;;;;-0.39;100.00;101075.96;273495;1267;23249;-90
2023/02/12 22:25:01;;;;;;;109.30;54.20;;;;;;;-0.33;100.00;101074.04;273483;1267;22331;-90
2023/02/12 22:31:08;;;;;;;116.80;57.90;;;;;;;-0.28;100.00;101071.98;271755;1268;22602;-88
2023/02/12 22:37:09;;;;;;;119.30;55.30;;;;;;;-0.23;100.00;101072.52;269821;1267;22352;-89
2023/02/12 22:43:11;;;;;;;125.80;57.40;;;;;;;-0.19;100.00;101072.19;272230;1268;22199;-89
2023/02/12 22:49:13;;;;;;;110.60;54.10;;;;;;;-0.17;100.00;101067.52;272952;1267;22615;-89
2023/02/12 22:55:15;;;;;;;116.70;55.50;;;;;;;-0.16;100.00;101067.85;271412;1267;23474;-89
2023/02/12 23:01:17;;;;;;;105.80;54.10;;;;;;;-0.15;100.00;101069.36;272836;1268;22542;-88
2023/02/12 23:07:19;;;;;;;123.90;59.50;;;;;;;-0.12;100.00;101070.48;272553;1267;22406;-89
2023/02/12 23:13:21;;;;;;;131.40;59.70;;;;;;;-0.09;100.00;101067.77;273850;1269;22339;-89
2023/02/12 23:19:23;;;;;;;127.90;60.20;;;;;;;-0.06;100.00;101064.77;273895;1268;22221;-88
2023/02/12 23:25:24;;;;;;;117.90;58.40;;;;;;;-0.01;100.00;101066.80;273639;1267;22384;-89
2023/02/12 23:31:26;;;;;;;132.20;61.50;;;;;;;-0.00;100.00;101055.35;273803;1269;22912;-90
2023/02/12 23:37:28;;;;;;;126.40;58.70;;;;;;;-0.04;100.00;101049.13;273492;1269;22241;-89
2023/02/12 23:43:31;;;;;;;123.00;58.70;;;;;;;-0.12;100.00;101049.44;273653;1269;22401;-89
2023/02/12 23:49:34;;;;;;;121.50;56.70;;;;;;;-0.16;100.00;101048.41;272571;1267;22516;-89
2023/02/12 23:55:36;;;;;;;110.90;54.80;;;;;;;-0.14;100.00;101042.83;272539;1268;22199;-89
